createdAt,value
2023-04-15T00:02:37.425Z,8.36
2023-04-15T00:05:25.673Z,8.35
2023-04-15T00:08:13.933Z,8.37
2023-04-15T00:11:05.870Z,8.41
2023-04-15T00:13:54.456Z,8.38
2023-04-15T00:16:42.594Z,8.35
2023-04-15T00:19:30.829Z,8.33
2023-04-15T00:22:19.173Z,8.35
2023-04-15T00:25:07.484Z,8.33
2023-04-15T00:27:56.924Z,8.33
2023-04-15T00:30:45.379Z,8.30
2023-04-15T00:33:33.517Z,8.25
2023-04-15T00:36:21.564Z,8.28
2023-04-15T00:39:10.107Z,8.21
2023-04-15T00:41:59.224Z,8.18
2023-04-15T00:44:48.688Z,8.17
2023-04-15T00:47:38.971Z,8.16
2023-04-15T00:50:27.020Z,8.16
2023-04-15T00:53:15.058Z,8.18
2023-04-15T00:56:03.174Z,8.15
2023-04-15T00:58:52.650Z,8.08
2023-04-15T01:01:42.594Z,8.06
2023-04-15T01:04:32.126Z,8.03
2023-04-15T01:07:20.496Z,7.96
2023-04-15T01:10:09.884Z,7.92
2023-04-15T01:12:58.035Z,7.93
2023-04-15T01:15:46.635Z,7.97
2023-04-15T01:18:37.652Z,7.92
2023-04-15T01:21:26.639Z,7.86
2023-04-15T01:24:18.672Z,7.83
2023-04-15T01:27:09.075Z,7.81
2023-04-15T01:29:57.601Z,7.76
2023-04-15T01:32:46.147Z,7.77
2023-04-15T01:35:34.554Z,7.76
2023-04-15T01:38:22.791Z,7.75
2023-04-15T01:41:11.267Z,7.72
2023-04-15T01:44:01.878Z,7.65
2023-04-15T01:46:50.304Z,7.59
2023-04-15T01:49:38.484Z,7.49
2023-04-15T01:52:26.657Z,7.50
2023-04-15T01:55:15.013Z,7.40
2023-04-15T01:58:03.113Z,7.33
2023-04-15T02:00:52.601Z,7.32
2023-04-15T02:03:40.656Z,7.36
2023-04-15T02:06:29.285Z,7.36
2023-04-15T02:09:17.772Z,7.37
2023-04-15T02:12:06.055Z,7.37
2023-04-15T02:14:54.505Z,7.39
2023-04-15T02:17:46.069Z,7.39
2023-04-15T02:20:35.077Z,7.49
2023-04-15T02:23:23.190Z,7.48
2023-04-15T02:26:12.038Z,7.51
2023-04-15T02:29:00.788Z,7.49
2023-04-15T02:31:49.395Z,7.42
2023-04-15T02:34:41.259Z,7.37
2023-04-15T02:37:30.500Z,7.38
2023-04-15T02:40:19.794Z,7.39
2023-04-15T02:43:08.253Z,7.42
2023-04-15T02:45:57.094Z,7.38
2023-04-15T02:48:45.412Z,7.26
2023-04-15T02:51:35.016Z,6.96
2023-04-15T02:54:23.878Z,6.74
2023-04-15T02:57:12.953Z,6.65
2023-04-15T03:00:01.130Z,6.64
2023-04-15T03:02:52.510Z,6.57
2023-04-15T03:05:41.067Z,6.57
2023-04-15T03:08:30.689Z,6.57
2023-04-15T03:11:19.207Z,6.61
2023-04-15T03:14:07.435Z,6.60
2023-04-15T03:16:56.276Z,6.53
2023-04-15T03:19:45.267Z,6.44
2023-04-15T03:22:33.629Z,6.40
2023-04-15T03:25:23.037Z,6.31
2023-04-15T03:28:11.114Z,6.26
2023-04-15T03:30:59.389Z,6.25
2023-04-15T03:33:47.758Z,6.23
2023-04-15T03:36:35.962Z,6.15
2023-04-15T03:39:24.319Z,6.07
2023-04-15T03:42:24.743Z,6.01
2023-04-15T03:45:13.153Z,5.88
2023-04-15T03:48:15.542Z,5.85
2023-04-15T03:51:05.199Z,5.84
2023-04-15T03:53:53.431Z,5.79
2023-04-15T03:56:41.894Z,5.79
2023-04-15T03:59:31.372Z,5.70
2023-04-15T04:02:19.610Z,5.67
2023-04-15T04:05:08.360Z,5.61
2023-04-15T04:07:56.457Z,5.55
2023-04-15T04:10:44.598Z,5.57
2023-04-15T04:13:32.930Z,5.61
2023-04-15T04:16:22.442Z,5.66
2023-04-15T04:19:10.831Z,5.62
2023-04-15T04:21:58.930Z,5.53
2023-04-15T04:24:46.989Z,5.51
2023-04-15T04:27:35.125Z,5.54
2023-04-15T04:30:23.261Z,5.55
2023-04-15T04:33:12.882Z,5.51
2023-04-15T04:36:01.035Z,5.53
2023-04-15T04:38:49.705Z,5.52
2023-04-15T04:41:39.308Z,5.48
2023-04-15T04:44:27.454Z,5.40
2023-04-15T04:47:15.515Z,5.39
2023-04-15T04:50:05.726Z,5.35
2023-04-15T04:52:56.840Z,5.30
2023-04-15T04:55:45.678Z,5.23
2023-04-15T04:58:33.632Z,5.20
2023-04-15T05:01:22.088Z,5.16
2023-04-15T05:04:10.612Z,5.16
2023-04-15T05:07:00.776Z,5.14
2023-04-15T05:09:48.897Z,5.13
2023-04-15T05:12:37.409Z,5.14
2023-04-15T05:15:25.733Z,5.14
2023-04-15T05:18:14.040Z,5.10
2023-04-15T05:21:02.319Z,5.16
2023-04-15T05:23:51.690Z,5.17
2023-04-15T05:26:39.767Z,5.20
2023-04-15T05:29:27.934Z,5.21
2023-04-15T05:32:16.007Z,5.23
2023-04-15T05:35:04.383Z,5.27
2023-04-15T05:37:56.592Z,5.28
2023-04-15T05:40:45.936Z,5.33
2023-04-15T05:43:34.193Z,5.40
2023-04-15T05:46:25.032Z,5.50
2023-04-15T05:49:15.656Z,5.57
2023-04-15T05:52:04.445Z,5.70
2023-04-15T05:54:54.316Z,5.81
2023-04-15T05:57:44.088Z,5.87
2023-04-15T06:00:38.057Z,5.91
2023-04-15T06:03:26.502Z,5.99
2023-04-15T06:06:15.477Z,6.01
2023-04-15T06:09:03.733Z,6.10
2023-04-15T06:11:53.155Z,6.16
2023-04-15T06:14:43.016Z,6.25
2023-04-15T06:17:31.442Z,6.29
2023-04-15T06:20:20.224Z,6.37
2023-04-15T06:23:08.362Z,6.46
2023-04-15T06:25:56.361Z,6.57
2023-04-15T06:28:45.946Z,6.58
2023-04-15T06:31:41.361Z,6.64
2023-04-15T06:34:32.391Z,6.68
2023-04-15T06:37:20.827Z,6.71
2023-04-15T06:40:11.175Z,6.79
2023-04-15T06:43:00.904Z,6.89
2023-04-15T06:45:53.795Z,6.87
2023-04-15T06:48:43.341Z,7.00
2023-04-15T06:51:31.663Z,7.08
2023-04-15T06:54:20.006Z,7.19
2023-04-15T06:57:12.051Z,7.20
2023-04-15T07:00:01.017Z,7.32
2023-04-15T07:02:49.477Z,7.47
2023-04-15T07:05:39.420Z,7.51
2023-04-15T07:08:27.357Z,7.67
2023-04-15T07:11:16.399Z,7.80
2023-04-15T07:14:04.867Z,7.93
2023-04-15T07:16:55.734Z,8.04
2023-04-15T07:19:44.189Z,8.08
2023-04-15T07:22:34.407Z,8.24
2023-04-15T07:25:22.926Z,8.41
2023-04-15T07:28:11.499Z,8.56
2023-04-15T07:31:04.810Z,8.62
2023-04-15T07:33:53.317Z,8.59
2023-04-15T07:36:41.510Z,8.53
2023-04-15T07:39:30.955Z,8.71
2023-04-15T07:42:27.073Z,8.76
2023-04-15T07:45:18.645Z,8.76
2023-04-15T07:48:08.360Z,8.79
2023-04-15T07:50:56.474Z,8.81
2023-04-15T07:53:44.546Z,8.89
2023-04-15T07:56:35.544Z,8.90
2023-04-15T07:59:23.695Z,8.93
2023-04-15T08:02:16.151Z,8.96
2023-04-15T08:05:04.566Z,9.17
2023-04-15T08:07:53.245Z,9.20
2023-04-15T08:10:42.232Z,9.28
2023-04-15T08:13:33.967Z,9.25
2023-04-15T08:16:24.688Z,9.28
2023-04-15T08:19:18.857Z,9.37
2023-04-15T08:22:10.948Z,9.43
2023-04-15T08:25:06.870Z,9.54
2023-04-15T08:28:10.867Z,9.64
2023-04-15T08:31:00.616Z,9.85
2023-04-15T08:33:49.185Z,10.04
2023-04-15T08:36:37.312Z,10.04
2023-04-15T08:39:26.068Z,10.00
2023-04-15T08:42:18.741Z,10.93
2023-04-15T08:45:11.148Z,11.82
2023-04-15T08:48:04.105Z,12.65
2023-04-15T08:50:53.721Z,12.43
2023-04-15T08:53:42.028Z,13.12
2023-04-15T08:56:33.638Z,12.96
2023-04-15T08:59:22.767Z,12.30
2023-04-15T09:02:10.871Z,12.70
2023-04-15T09:05:01.025Z,13.50
2023-04-15T09:07:49.056Z,13.83
2023-04-15T09:10:37.143Z,13.21
2023-04-15T09:13:25.484Z,13.17
2023-04-15T09:16:15.569Z,12.45
2023-04-15T09:19:22.017Z,12.34
2023-04-15T09:22:11.466Z,12.76
2023-04-15T09:25:04.641Z,13.24
2023-04-15T09:27:53.955Z,13.51
2023-04-15T09:30:49.149Z,13.37
2023-04-15T09:33:56.091Z,13.02
2023-04-15T09:36:55.096Z,13.33
2023-04-15T09:39:55.504Z,13.11
2023-04-15T09:42:57.204Z,13.13
2023-04-15T09:45:49.999Z,13.73
2023-04-15T09:48:38.062Z,14.01
2023-04-15T09:51:37.775Z,13.32
2023-04-15T09:54:25.984Z,13.40
2023-04-15T09:57:15.968Z,13.32
2023-04-15T10:00:05.170Z,13.69
2023-04-15T10:02:55.597Z,14.03
2023-04-15T10:05:44.242Z,14.15
2023-04-15T10:08:34.817Z,13.36
2023-04-15T10:11:25.743Z,12.83
2023-04-15T10:14:17.494Z,12.66
2023-04-15T10:17:07.070Z,13.16
2023-04-15T10:19:56.523Z,13.35
2023-04-15T10:22:47.863Z,12.96
2023-04-15T10:25:36.216Z,13.19
2023-04-15T10:28:28.054Z,12.85
2023-04-15T10:31:20.450Z,12.86
2023-04-15T10:34:09.746Z,13.22
2023-04-15T10:36:58.705Z,12.83
2023-04-15T10:39:46.792Z,12.71
2023-04-15T10:42:38.682Z,12.66
2023-04-15T10:45:30.714Z,12.64
2023-04-15T10:48:20.544Z,12.74
2023-04-15T10:51:10.948Z,12.90
2023-04-15T10:54:00.913Z,12.69
2023-04-15T10:56:52.802Z,12.96
2023-04-15T11:00:02.904Z,12.69
2023-04-15T11:02:54.652Z,12.76
2023-04-15T11:05:53.985Z,13.31
2023-04-15T11:08:56.094Z,13.20
2023-04-15T11:12:06.686Z,13.65
2023-04-15T11:14:55.007Z,13.97
2023-04-15T11:17:45.278Z,13.72
2023-04-15T11:20:41.133Z,13.55
2023-04-15T11:23:33.273Z,13.35
2023-04-15T11:26:27.378Z,13.21
2023-04-15T11:29:19.006Z,13.46
2023-04-15T11:32:08.223Z,13.48
2023-04-15T11:34:56.682Z,13.50
2023-04-15T11:37:44.938Z,13.56
2023-04-15T11:40:35.482Z,13.68
2023-04-15T11:43:25.117Z,12.77
2023-04-15T11:46:13.704Z,12.28
2023-04-15T11:49:04.689Z,12.66
2023-04-15T11:51:55.877Z,13.13
2023-04-15T11:54:44.343Z,13.08
2023-04-15T11:57:35.898Z,13.46
2023-04-15T12:00:24.199Z,12.94
2023-04-15T12:03:33.135Z,12.77
2023-04-15T12:06:22.225Z,12.49
2023-04-15T12:09:12.530Z,12.74
2023-04-15T12:12:00.620Z,12.54
2023-04-15T12:14:56.276Z,12.81
2023-04-15T12:17:51.096Z,12.38
2023-04-15T12:20:45.416Z,12.45
2023-04-15T12:23:37.713Z,12.31
2023-04-15T12:26:30.458Z,12.62
2023-04-15T12:29:21.279Z,12.39
2023-04-15T12:32:12.056Z,12.33
2023-04-15T12:35:00.118Z,12.18
2023-04-15T12:37:48.624Z,12.13
2023-04-15T12:40:36.904Z,12.61
2023-04-15T12:43:25.083Z,12.27
2023-04-15T12:46:13.674Z,12.10
2023-04-15T12:49:03.233Z,12.02
2023-04-15T12:51:52.963Z,12.27
2023-04-15T12:54:41.148Z,12.17
2023-04-15T12:57:29.402Z,12.32
2023-04-15T13:00:17.879Z,12.23
2023-04-15T13:03:07.222Z,12.29
2023-04-15T13:05:57.788Z,12.18
2023-04-15T13:08:57.359Z,12.45
2023-04-15T13:11:46.717Z,11.92
2023-04-15T13:14:35.578Z,12.22
2023-04-15T13:17:23.896Z,12.10
2023-04-15T13:20:12.324Z,12.05
2023-04-15T13:23:02.135Z,11.79
2023-04-15T13:25:50.282Z,11.95
2023-04-15T13:28:41.365Z,11.79
2023-04-15T13:31:29.615Z,12.25
2023-04-15T13:34:18.225Z,12.26
2023-04-15T13:37:08.059Z,12.34
2023-04-15T13:40:09.150Z,12.12
2023-04-15T13:42:58.673Z,12.29
2023-04-15T13:45:47.913Z,12.44
2023-04-15T13:48:36.202Z,12.15
2023-04-15T13:51:24.359Z,12.54
2023-04-15T13:54:12.459Z,12.24
2023-04-15T13:57:02.033Z,12.12
2023-04-15T13:59:50.448Z,12.13
2023-04-15T14:02:38.628Z,11.73
2023-04-15T14:05:27.047Z,12.21
2023-04-15T14:08:15.693Z,12.42
2023-04-15T14:11:03.845Z,12.46
2023-04-15T14:13:53.399Z,12.22
2023-04-15T14:16:41.594Z,11.83
2023-04-15T14:19:31.579Z,11.66
2023-04-15T14:22:19.760Z,11.88
2023-04-15T14:25:08.568Z,11.83
2023-04-15T14:27:56.643Z,11.88
2023-04-15T14:30:46.008Z,12.02
2023-04-15T14:33:34.075Z,11.62
2023-04-15T14:36:22.436Z,11.80
2023-04-15T14:39:10.466Z,11.24
2023-04-15T14:41:58.617Z,11.13
2023-04-15T14:44:47.057Z,11.08
2023-04-15T14:47:36.900Z,11.06
2023-04-15T14:50:24.935Z,10.89
2023-04-15T14:53:12.975Z,10.97
2023-04-15T14:56:01.504Z,11.15
2023-04-15T14:58:50.394Z,10.88
2023-04-15T15:01:38.692Z,11.22
2023-04-15T15:04:28.555Z,10.71
2023-04-15T15:07:16.792Z,10.99
2023-04-15T15:10:06.101Z,10.73
2023-04-15T15:12:54.359Z,10.93
2023-04-15T15:15:43.109Z,10.77
2023-04-15T15:18:31.370Z,10.85
2023-04-15T15:21:20.866Z,10.48
2023-04-15T15:24:09.228Z,10.39
2023-04-15T15:26:58.202Z,10.53
2023-04-15T15:29:49.819Z,10.79
2023-04-15T15:32:39.301Z,10.54
2023-04-15T15:35:33.803Z,10.68
2023-04-15T15:38:24.650Z,10.12
2023-04-15T15:41:13.525Z,10.14
2023-04-15T15:44:01.980Z,10.24
2023-04-15T15:46:51.429Z,10.17
2023-04-15T15:49:41.118Z,10.30
2023-04-15T15:52:29.493Z,9.91
2023-04-15T15:55:20.612Z,10.09
2023-04-15T15:58:08.662Z,10.13
2023-04-15T16:00:57.003Z,10.20
2023-04-15T16:03:45.337Z,10.22
2023-04-15T16:06:34.980Z,10.02
2023-04-15T16:09:23.477Z,9.85
2023-04-15T16:12:13.084Z,9.94
2023-04-15T16:15:01.138Z,9.96
2023-04-15T16:17:49.579Z,9.69
2023-04-15T16:20:38.890Z,9.89
2023-04-15T16:23:26.917Z,9.84
2023-04-15T16:26:15.053Z,9.70
2023-04-15T16:29:05.518Z,9.43
2023-04-15T16:31:53.685Z,9.30
2023-04-15T16:34:41.964Z,8.97
2023-04-15T16:37:36.847Z,8.71
2023-04-15T16:43:37.268Z,8.70
2023-04-15T16:46:26.867Z,8.75
2023-04-15T16:49:14.964Z,8.72
2023-04-15T16:52:05.482Z,8.18
2023-04-15T16:54:53.561Z,8.17
2023-04-15T16:58:01.525Z,8.30
2023-04-15T17:00:49.749Z,8.14
2023-04-15T17:03:40.054Z,8.16
2023-04-15T17:06:28.340Z,7.85
2023-04-15T17:09:30.382Z,7.75
2023-04-15T17:12:19.059Z,7.57
2023-04-15T17:15:08.647Z,7.76
2023-04-15T17:17:56.794Z,7.54
2023-04-15T17:20:46.316Z,7.59
2023-04-15T17:23:34.421Z,7.55
2023-04-15T17:26:22.967Z,7.50
2023-04-15T17:29:11.694Z,7.28
2023-04-15T17:31:59.796Z,7.38
2023-04-15T17:34:50.044Z,7.40
2023-04-15T17:37:40.426Z,7.51
2023-04-15T17:40:28.767Z,7.66
2023-04-15T17:43:16.971Z,7.70
2023-04-15T17:46:05.365Z,7.60
2023-04-15T17:48:53.466Z,7.48
2023-04-15T17:51:41.543Z,7.32
2023-04-15T17:54:30.881Z,7.40
2023-04-15T17:57:19.000Z,7.43
2023-04-15T18:00:10.166Z,7.39
2023-04-15T18:02:58.599Z,7.39
2023-04-15T18:05:47.221Z,7.43
2023-04-15T18:08:35.368Z,7.40
2023-04-15T18:11:25.443Z,7.39
2023-04-15T18:14:15.674Z,7.41
2023-04-15T18:17:13.495Z,7.51
2023-04-15T18:20:01.760Z,7.47
2023-04-15T18:22:50.635Z,7.36
2023-04-15T18:25:39.070Z,7.40
2023-04-15T18:28:29.456Z,7.37
2023-04-15T18:31:17.638Z,7.34
2023-04-15T18:34:07.430Z,7.24
2023-04-15T18:36:56.928Z,7.26
2023-04-15T18:39:45.077Z,7.26
2023-04-15T18:42:33.066Z,7.28
2023-04-15T18:45:23.148Z,7.23
2023-04-15T18:48:11.457Z,7.27
2023-04-15T18:50:59.584Z,7.23
2023-04-15T18:53:47.854Z,7.07
2023-04-15T18:56:36.474Z,7.12
2023-04-15T18:59:29.318Z,7.06
2023-04-15T19:02:21.003Z,7.08
2023-04-15T19:05:10.164Z,7.10
2023-04-15T19:07:59.676Z,7.17
2023-04-15T19:10:48.061Z,7.18
2023-04-15T19:13:36.197Z,7.15
2023-04-15T19:16:24.340Z,7.10
2023-04-15T19:19:14.605Z,7.07
2023-04-15T19:22:03.389Z,7.02
2023-04-15T19:24:52.153Z,7.06
2023-04-15T19:27:40.805Z,7.12
2023-04-15T19:30:28.906Z,7.08
2023-04-15T19:33:17.667Z,7.02
2023-04-15T19:36:08.631Z,7.08
2023-04-15T19:38:56.574Z,7.06
2023-04-15T19:41:44.863Z,7.07
2023-04-15T19:44:33.049Z,7.08
2023-04-15T19:47:21.139Z,7.11
2023-04-15T19:50:11.277Z,7.10
2023-04-15T19:53:00.929Z,7.16
2023-04-15T19:55:49.409Z,7.12
2023-04-15T19:58:37.604Z,7.12
2023-04-15T20:01:25.751Z,7.07
2023-04-15T20:04:14.086Z,7.13
2023-04-15T20:07:02.362Z,7.13
2023-04-15T20:09:52.093Z,7.01
2023-04-15T20:12:51.426Z,6.95
2023-04-15T20:15:41.323Z,6.88
2023-04-15T20:18:29.442Z,6.92
2023-04-15T20:21:17.748Z,6.93
2023-04-15T20:24:07.085Z,6.92
2023-04-15T20:26:57.736Z,6.96
2023-04-15T20:29:46.049Z,6.90
2023-04-15T20:32:35.869Z,6.78
2023-04-15T20:35:28.010Z,6.76
2023-04-15T20:38:32.040Z,6.72
2023-04-15T20:41:48.205Z,6.70
2023-04-15T20:44:47.387Z,6.74
2023-04-15T20:47:55.741Z,6.71
2023-04-15T20:50:44.950Z,6.71
2023-04-15T20:53:38.235Z,6.84
2023-04-15T20:56:33.395Z,6.86
2023-04-15T20:59:29.216Z,6.93
2023-04-15T21:02:31.572Z,6.76
2023-04-15T21:05:31.343Z,6.78
2023-04-15T21:08:34.747Z,6.96
2023-04-15T21:12:07.703Z,6.93
2023-04-15T21:14:54.297Z,6.95
2023-04-15T21:17:43.797Z,7.00
2023-04-15T21:23:41.728Z,6.87
2023-04-15T21:26:30.016Z,7.07
2023-04-15T21:29:18.097Z,7.05
2023-04-15T21:32:06.277Z,7.07
2023-04-15T21:34:55.758Z,7.13
2023-04-15T21:38:07.830Z,7.14
2023-04-15T21:40:57.574Z,7.01
2023-04-15T21:43:49.480Z,7.16
2023-04-15T21:46:37.523Z,7.19
2023-04-15T21:49:27.463Z,7.21
2023-04-15T21:52:18.050Z,7.20
2023-04-15T21:55:08.291Z,7.21
2023-04-15T21:57:56.507Z,7.23
2023-04-15T22:00:52.733Z,7.24
2023-04-15T22:03:41.350Z,7.25
2023-04-15T22:06:29.555Z,7.22
2023-04-15T22:09:19.327Z,7.26
2023-04-15T22:12:07.890Z,7.26
2023-04-15T22:14:57.169Z,7.27
2023-04-15T22:17:45.434Z,7.21
2023-04-15T22:20:33.810Z,7.14
2023-04-15T22:23:22.691Z,7.17
2023-04-15T22:26:12.124Z,7.20
2023-04-15T22:29:00.367Z,7.19
2023-04-15T22:31:48.655Z,7.23
2023-04-15T22:34:36.958Z,7.25
2023-04-15T22:37:25.800Z,7.26
2023-04-15T22:40:14.269Z,7.26
2023-04-15T22:43:03.799Z,7.32
2023-04-15T22:45:53.054Z,7.32
2023-04-15T22:48:42.522Z,7.30
2023-04-15T22:51:32.017Z,7.37
2023-04-15T22:54:20.777Z,7.36
2023-04-15T22:57:09.448Z,7.38
2023-04-15T22:59:59.197Z,7.41
2023-04-15T23:02:47.709Z,7.41
2023-04-15T23:05:36.061Z,7.38
2023-04-15T23:08:25.119Z,7.40
2023-04-15T23:11:21.967Z,7.41
2023-04-15T23:14:10.722Z,7.39
2023-04-15T23:17:01.076Z,7.41
2023-04-15T23:19:52.620Z,7.38
2023-04-15T23:22:42.054Z,7.43
2023-04-15T23:25:32.184Z,7.41
2023-04-15T23:28:22.629Z,7.40
2023-04-15T23:31:11.270Z,7.42
2023-04-15T23:34:00.945Z,7.40
2023-04-15T23:36:59.424Z,7.41
2023-04-15T23:40:09.295Z,7.22
2023-04-15T23:42:57.304Z,7.36
2023-04-15T23:45:45.427Z,7.39
2023-04-15T23:48:33.655Z,7.36
2023-04-15T23:51:23.454Z,7.37
2023-04-15T23:54:11.865Z,7.34
2023-04-15T23:56:59.994Z,7.29
2023-04-15T23:59:55.623Z,7.28
